createdAt,value
2023-03-20T00:02:19.352Z,34.80
2023-03-20T00:04:46.005Z,34.80
2023-03-20T00:07:12.676Z,34.80
2023-03-20T00:09:39.761Z,34.90
2023-03-20T00:12:06.646Z,34.80
2023-03-20T00:14:34.837Z,34.80
2023-03-20T00:17:02.003Z,34.90
2023-03-20T00:19:29.465Z,34.90
2023-03-20T00:21:56.428Z,34.80
2023-03-20T00:24:24.025Z,34.90
2023-03-20T00:26:52.278Z,34.90
2023-03-20T00:29:24.380Z,34.90
2023-03-20T00:31:51.706Z,34.90
2023-03-20T00:34:20.509Z,34.90
2023-03-20T00:36:47.557Z,34.90
2023-03-20T00:39:14.219Z,34.90
2023-03-20T00:41:48.251Z,34.90
2023-03-20T00:44:36.128Z,34.90
2023-03-20T00:47:19.624Z,34.90
2023-03-20T00:49:49.788Z,34.90
2023-03-20T00:52:18.259Z,34.90
2023-03-20T00:54:45.184Z,34.90
2023-03-20T00:57:14.197Z,34.80
2023-03-20T00:59:51.231Z,34.80
2023-03-20T01:02:17.864Z,35.00
2023-03-20T01:04:44.525Z,34.90
2023-03-20T01:07:14.219Z,34.90
2023-03-20T01:09:41.605Z,35.00
2023-03-20T01:12:11.382Z,35.00
2023-03-20T01:14:38.083Z,35.00
2023-03-20T01:17:04.860Z,35.10
2023-03-20T01:19:31.512Z,35.00
2023-03-20T01:21:58.505Z,35.00
2023-03-20T01:24:25.437Z,35.00
2023-03-20T01:26:52.610Z,35.00
2023-03-20T01:29:22.689Z,35.00
2023-03-20T01:31:50.854Z,35.00
2023-03-20T01:34:18.243Z,35.00
2023-03-20T01:36:50.509Z,35.00
2023-03-20T01:39:19.094Z,35.10
2023-03-20T01:41:47.051Z,35.10
2023-03-20T01:44:43.634Z,35.00
2023-03-20T01:47:18.131Z,35.00
2023-03-20T01:50:12.623Z,35.10
2023-03-20T01:52:39.941Z,35.10
2023-03-20T01:55:06.723Z,35.00
2023-03-20T01:57:33.413Z,35.10
2023-03-20T02:00:09.433Z,35.00
2023-03-20T02:02:37.595Z,35.10
2023-03-20T02:05:08.647Z,35.10
2023-03-20T02:07:36.778Z,35.10
2023-03-20T02:10:10.728Z,35.10
2023-03-20T02:12:38.729Z,35.10
2023-03-20T02:15:06.933Z,35.00
2023-03-20T02:17:34.031Z,35.10
2023-03-20T02:20:07.281Z,35.00
2023-03-20T02:23:01.207Z,35.20
2023-03-20T02:26:02.188Z,35.10
2023-03-20T02:28:47.791Z,35.10
2023-03-20T02:31:41.938Z,35.10
2023-03-20T02:34:42.443Z,35.10
2023-03-20T02:37:27.887Z,35.00
2023-03-20T02:40:16.230Z,35.00
2023-03-20T02:42:51.832Z,35.10
2023-03-20T02:45:38.676Z,35.00
2023-03-20T02:48:36.723Z,35.00
2023-03-20T02:51:25.778Z,35.00
2023-03-20T02:54:07.072Z,35.00
2023-03-20T02:56:44.897Z,35.00
2023-03-20T02:59:42.556Z,35.10
2023-03-20T03:02:15.552Z,35.10
2023-03-20T03:04:55.011Z,35.00
2023-03-20T03:07:26.601Z,35.10
2023-03-20T03:10:02.856Z,35.10
2023-03-20T03:12:37.811Z,35.10
2023-03-20T03:15:13.433Z,35.10
2023-03-20T03:17:42.586Z,35.10
2023-03-20T03:20:20.488Z,35.10
2023-03-20T03:22:47.546Z,35.10
2023-03-20T03:25:14.128Z,35.10
2023-03-20T03:27:45.895Z,35.00
2023-03-20T03:30:24.199Z,35.10
2023-03-20T03:33:03.674Z,35.10
2023-03-20T03:35:31.076Z,35.10
2023-03-20T03:38:09.092Z,35.00
2023-03-20T03:41:05.128Z,35.10
2023-03-20T03:43:38.479Z,35.10
2023-03-20T03:46:11.529Z,35.10
2023-03-20T03:48:44.803Z,35.00
2023-03-20T03:51:16.255Z,35.10
2023-03-20T03:54:01.716Z,35.10
2023-03-20T03:56:31.515Z,35.10
2023-03-20T03:59:04.252Z,35.10
2023-03-20T04:01:35.679Z,35.10
2023-03-20T04:04:07.039Z,35.10
2023-03-20T04:06:33.732Z,35.10
2023-03-20T04:09:00.638Z,35.10
2023-03-20T04:11:29.166Z,35.10
2023-03-20T04:13:56.095Z,35.10
2023-03-20T04:16:24.909Z,35.10
2023-03-20T04:18:51.744Z,35.10
2023-03-20T04:21:19.156Z,35.10
2023-03-20T04:23:46.067Z,35.10
2023-03-20T04:26:13.198Z,35.10
2023-03-20T04:28:39.834Z,35.10
2023-03-20T04:31:06.785Z,35.10
2023-03-20T04:33:33.512Z,35.10
2023-03-20T04:36:00.495Z,35.20
2023-03-20T04:38:27.251Z,35.20
2023-03-20T04:40:54.051Z,35.10
2023-03-20T04:43:20.712Z,35.10
2023-03-20T04:45:47.562Z,35.10
2023-03-20T04:48:14.433Z,35.20
2023-03-20T04:50:41.264Z,35.20
2023-03-20T04:53:08.108Z,35.20
2023-03-20T04:55:35.073Z,35.30
2023-03-20T04:58:01.869Z,35.30
2023-03-20T05:00:28.632Z,35.40
2023-03-20T05:02:55.579Z,35.40
2023-03-20T05:05:23.550Z,35.30
2023-03-20T05:07:51.526Z,35.40
2023-03-20T05:10:18.925Z,35.40
2023-03-20T05:12:45.577Z,35.40
2023-03-20T05:15:13.367Z,35.40
2023-03-20T05:17:40.457Z,35.60
2023-03-20T05:20:07.911Z,35.50
2023-03-20T05:22:34.512Z,35.50
2023-03-20T05:25:01.687Z,35.50
2023-03-20T05:27:28.289Z,35.50
2023-03-20T05:29:55.372Z,35.40
2023-03-20T05:32:22.115Z,35.40
2023-03-20T05:34:48.748Z,35.40
2023-03-20T05:37:15.315Z,35.40
2023-03-20T05:39:42.033Z,35.40
2023-03-20T05:42:08.664Z,35.40
2023-03-20T05:44:35.235Z,35.40
2023-03-20T05:47:01.838Z,35.30
2023-03-20T05:49:28.777Z,35.30
2023-03-20T05:51:55.746Z,35.30
2023-03-20T05:54:22.344Z,35.30
2023-03-20T05:56:48.965Z,35.20
2023-03-20T05:59:15.789Z,35.20
2023-03-20T06:01:42.431Z,35.20
2023-03-20T06:04:09.072Z,35.10
2023-03-20T06:06:37.854Z,35.10
2023-03-20T06:09:05.360Z,35.10
2023-03-20T06:11:32.674Z,35.10
2023-03-20T06:13:59.337Z,35.10
2023-03-20T06:16:27.509Z,35.10
2023-03-20T06:18:54.270Z,35.10
2023-03-20T06:21:20.992Z,35.80
2023-03-20T06:23:47.622Z,35.10
2023-03-20T06:26:14.210Z,35.10
2023-03-20T06:28:40.780Z,35.00
2023-03-20T06:31:09.399Z,35.00
2023-03-20T06:33:35.998Z,34.90
2023-03-20T06:36:02.882Z,34.80
2023-03-20T06:38:29.842Z,34.80
2023-03-20T06:40:56.490Z,34.70
2023-03-20T06:43:23.135Z,34.70
2023-03-20T06:45:49.782Z,34.80
2023-03-20T06:48:21.784Z,34.70
2023-03-20T06:50:50.171Z,34.70
2023-03-20T06:53:17.064Z,34.70
2023-03-20T06:55:47.731Z,34.60
2023-03-20T06:58:14.569Z,34.60
2023-03-20T07:00:41.208Z,34.60
2023-03-20T07:03:08.308Z,34.50
2023-03-20T07:05:35.817Z,34.50
2023-03-20T07:08:02.591Z,34.50
2023-03-20T07:10:29.382Z,34.50
2023-03-20T07:12:56.684Z,34.60
2023-03-20T07:15:23.372Z,34.50
2023-03-20T07:17:49.984Z,34.30
2023-03-20T07:20:17.052Z,34.40
2023-03-20T07:22:43.803Z,34.50
2023-03-20T07:25:11.113Z,34.40
2023-03-20T07:27:37.980Z,34.40
2023-03-20T07:30:06.539Z,34.40
2023-03-20T07:32:33.302Z,34.40
2023-03-20T07:35:01.139Z,34.30
2023-03-20T07:37:27.710Z,34.30
2023-03-20T07:39:54.359Z,34.30
2023-03-20T07:42:20.979Z,34.40
2023-03-20T07:44:47.600Z,34.20
2023-03-20T07:47:14.207Z,34.30
2023-03-20T07:49:41.396Z,34.30
2023-03-20T07:52:08.718Z,34.20
2023-03-20T07:54:35.431Z,34.20
2023-03-20T07:57:02.226Z,34.20
2023-03-20T07:59:28.792Z,34.20
2023-03-20T08:01:55.386Z,34.20
2023-03-20T08:04:23.159Z,34.20
2023-03-20T08:06:51.210Z,34.10
2023-03-20T08:09:18.836Z,34.10
2023-03-20T08:11:46.086Z,34.10
2023-03-20T08:14:13.088Z,34.10
2023-03-20T08:16:39.800Z,34.10
2023-03-20T08:19:06.845Z,34.20
2023-03-20T08:21:33.706Z,34.50
2023-03-20T08:24:00.416Z,34.30
2023-03-20T08:26:27.187Z,34.20
2023-03-20T08:28:53.784Z,34.10
2023-03-20T08:31:20.570Z,34.10
2023-03-20T08:33:47.972Z,34.00
2023-03-20T08:36:15.845Z,33.90
2023-03-20T08:38:42.958Z,33.90
2023-03-20T08:41:09.688Z,33.80
2023-03-20T08:43:36.430Z,33.90
2023-03-20T08:46:03.431Z,34.00
2023-03-20T08:48:30.113Z,33.90
2023-03-20T08:50:56.794Z,33.70
2023-03-20T08:53:23.449Z,33.70
2023-03-20T08:55:51.455Z,33.70
2023-03-20T08:58:18.856Z,33.60
2023-03-20T09:00:45.700Z,33.60
2023-03-20T09:03:17.845Z,33.80
2023-03-20T09:05:46.481Z,33.50
2023-03-20T09:08:13.432Z,33.50
2023-03-20T09:10:43.158Z,33.50
2023-03-20T09:13:25.691Z,33.50
2023-03-20T09:15:54.826Z,33.50
2023-03-20T09:18:22.200Z,33.40
2023-03-20T09:20:49.354Z,33.50
2023-03-20T09:23:17.546Z,33.50
2023-03-20T09:25:44.221Z,33.40
2023-03-20T09:28:11.240Z,33.40
2023-03-20T09:30:38.574Z,33.50
2023-03-20T09:33:05.723Z,33.50
2023-03-20T09:35:32.622Z,33.50
2023-03-20T09:37:59.298Z,33.50
2023-03-20T09:40:49.808Z,33.50
2023-03-20T09:43:47.221Z,33.50
2023-03-20T09:47:19.297Z,33.40
2023-03-20T09:49:59.305Z,33.40
2023-03-20T09:52:40.343Z,33.30
2023-03-20T09:55:16.654Z,33.30
2023-03-20T09:57:52.598Z,33.40
2023-03-20T10:00:22.308Z,33.40
2023-03-20T10:03:04.572Z,33.40
2023-03-20T10:05:39.806Z,33.30
2023-03-20T10:08:11.373Z,33.30
2023-03-20T10:10:59.849Z,33.40
2023-03-20T10:13:49.732Z,33.40
2023-03-20T10:16:22.288Z,33.40
2023-03-20T10:19:16.085Z,33.40
2023-03-20T10:21:54.179Z,33.30
2023-03-20T10:24:35.270Z,33.30
2023-03-20T10:27:12.675Z,33.40
2023-03-20T10:29:53.109Z,33.40
2023-03-20T10:32:43.032Z,33.30
2023-03-20T10:35:38.494Z,33.30
2023-03-20T10:38:15.823Z,33.30
2023-03-20T10:40:43.369Z,33.30
2023-03-20T10:43:15.708Z,33.30
2023-03-20T10:45:58.902Z,33.20
2023-03-20T10:48:32.463Z,33.20
2023-03-20T10:51:02.027Z,33.20
2023-03-20T10:53:43.797Z,33.20
2023-03-20T10:56:20.031Z,33.10
2023-03-20T10:58:50.493Z,33.30
2023-03-20T11:01:18.395Z,33.20
2023-03-20T11:03:45.144Z,33.20
2023-03-20T11:06:20.540Z,33.20
2023-03-20T11:08:51.212Z,33.10
2023-03-20T11:11:26.677Z,33.20
2023-03-20T11:13:53.667Z,33.10
2023-03-20T11:16:31.701Z,33.10
2023-03-20T11:19:08.699Z,33.10
2023-03-20T11:21:44.999Z,33.00
2023-03-20T11:24:36.655Z,33.00
2023-03-20T11:27:08.721Z,33.00
2023-03-20T11:29:36.081Z,33.00
2023-03-20T11:32:20.053Z,33.00
2023-03-20T11:34:47.682Z,33.60
2023-03-20T11:37:34.774Z,33.00
2023-03-20T11:40:10.819Z,33.00
2023-03-20T11:42:37.540Z,32.90
2023-03-20T11:45:15.371Z,32.90
2023-03-20T11:47:42.629Z,32.90
2023-03-20T11:50:26.020Z,32.90
2023-03-20T11:52:53.923Z,32.90
2023-03-20T11:55:28.083Z,32.90
2023-03-20T11:58:06.336Z,32.90
2023-03-20T12:00:42.705Z,32.90
2023-03-20T12:03:41.986Z,32.90
2023-03-20T12:06:40.869Z,32.90
2023-03-20T12:09:19.754Z,32.90
2023-03-20T12:12:11.279Z,32.90
2023-03-20T12:14:43.711Z,32.80
2023-03-20T12:17:33.851Z,32.80
2023-03-20T12:20:22.576Z,32.80
2023-03-20T12:23:14.127Z,32.80
2023-03-20T12:26:04.081Z,32.70
2023-03-20T12:28:38.299Z,32.70
2023-03-20T12:31:08.006Z,32.70
2023-03-20T12:34:04.254Z,32.90
2023-03-20T12:36:43.519Z,32.70
2023-03-20T12:39:18.230Z,32.70
2023-03-20T12:42:00.838Z,32.80
2023-03-20T12:44:43.985Z,32.70
2023-03-20T12:47:19.714Z,32.60
2023-03-20T12:50:01.756Z,32.60
2023-03-20T12:52:28.340Z,32.60
2023-03-20T12:55:20.251Z,32.60
2023-03-20T12:58:25.129Z,32.50
2023-03-20T13:01:17.888Z,32.50
2023-03-20T13:03:50.959Z,32.50
2023-03-20T13:06:46.378Z,32.70
2023-03-20T13:10:11.731Z,32.60
2023-03-20T13:12:49.997Z,33.60
2023-03-20T13:15:28.666Z,32.90
2023-03-20T13:18:11.922Z,32.90
2023-03-20T13:20:54.255Z,33.00
2023-03-20T13:23:30.934Z,32.90
2023-03-20T13:26:17.329Z,33.00
2023-03-20T13:29:06.388Z,33.00
2023-03-20T13:31:36.889Z,33.00
2023-03-20T13:34:25.908Z,33.00
2023-03-20T13:37:22.917Z,33.00
2023-03-20T13:40:21.999Z,32.90
2023-03-20T13:43:10.350Z,32.90
2023-03-20T13:45:39.160Z,32.90
2023-03-20T13:48:43.655Z,32.60
2023-03-20T13:51:22.337Z,32.30
2023-03-20T13:54:10.896Z,32.20
2023-03-20T13:56:59.549Z,32.30
2023-03-20T13:59:45.294Z,32.30
2023-03-20T14:02:28.866Z,32.40
2023-03-20T14:05:06.329Z,32.50
2023-03-20T14:07:35.987Z,32.40
2023-03-20T14:10:20.781Z,32.50
2023-03-20T14:13:03.054Z,32.50
2023-03-20T14:15:35.079Z,32.40
2023-03-20T14:18:07.227Z,32.40
2023-03-20T14:20:40.015Z,32.50
2023-03-20T14:23:15.255Z,32.50
2023-03-20T14:25:43.559Z,32.60
2023-03-20T14:28:12.966Z,32.50
2023-03-20T14:30:46.232Z,32.50
2023-03-20T14:33:12.853Z,32.50
2023-03-20T14:35:44.445Z,32.60
2023-03-20T14:38:18.789Z,32.60
2023-03-20T14:41:03.999Z,32.60
2023-03-20T14:44:06.228Z,32.60
2023-03-20T14:46:54.589Z,32.60
2023-03-20T14:49:42.841Z,32.70
2023-03-20T14:52:43.757Z,32.70
2023-03-20T14:55:34.185Z,32.70
2023-03-20T14:58:25.279Z,32.70
2023-03-20T15:00:52.086Z,32.80
2023-03-20T15:03:19.159Z,32.90
2023-03-20T15:05:47.212Z,32.80
2023-03-20T15:08:24.057Z,32.90
2023-03-20T15:10:55.375Z,33.60
2023-03-20T15:13:25.129Z,32.90
2023-03-20T15:15:56.342Z,33.00
2023-03-20T15:18:26.467Z,33.10
2023-03-20T15:20:55.907Z,33.10
2023-03-20T15:23:22.590Z,33.10
2023-03-20T15:25:50.424Z,33.10
2023-03-20T15:28:27.473Z,33.10
2023-03-20T15:30:57.997Z,33.20
2023-03-20T15:33:32.211Z,33.20
2023-03-20T15:36:06.874Z,33.20
2023-03-20T15:38:34.857Z,33.10
2023-03-20T15:41:05.643Z,33.20
2023-03-20T15:43:35.196Z,33.30
2023-03-20T15:46:17.481Z,33.20
2023-03-20T15:48:50.708Z,33.30
2023-03-20T15:51:19.455Z,33.30
2023-03-20T15:53:48.304Z,33.30
2023-03-20T15:56:19.194Z,33.30
2023-03-20T15:58:49.408Z,33.30
2023-03-20T16:01:21.918Z,33.40
2023-03-20T16:03:49.107Z,33.30
2023-03-20T16:06:19.587Z,33.30
2023-03-20T16:08:56.845Z,33.30
2023-03-20T16:11:23.416Z,33.40
2023-03-20T16:13:53.057Z,33.50
2023-03-20T16:16:23.745Z,33.40
2023-03-20T16:18:51.012Z,33.30
2023-03-20T16:21:30.859Z,33.40
2023-03-20T16:23:59.491Z,33.50
2023-03-20T16:26:27.281Z,33.50
2023-03-20T16:28:57.637Z,33.40
2023-03-20T16:31:31.682Z,33.40
2023-03-20T16:34:05.811Z,33.50
2023-03-20T16:36:37.631Z,33.50
2023-03-20T16:39:17.935Z,33.40
2023-03-20T16:41:46.094Z,33.40
2023-03-20T16:44:28.024Z,33.30
2023-03-20T16:47:00.918Z,33.30
2023-03-20T16:49:32.047Z,33.30
2023-03-20T16:52:01.927Z,33.30
2023-03-20T16:54:35.316Z,33.30
2023-03-20T16:57:03.927Z,33.40
2023-03-20T16:59:30.903Z,33.30
2023-03-20T17:02:01.613Z,33.30
2023-03-20T17:04:32.350Z,33.20
2023-03-20T17:07:01.342Z,33.30
2023-03-20T17:09:31.094Z,33.30
2023-03-20T17:12:23.251Z,33.30
2023-03-20T17:14:50.072Z,33.40
2023-03-20T17:17:19.844Z,33.30
2023-03-20T17:19:47.402Z,33.30
2023-03-20T17:22:19.756Z,33.40
2023-03-20T17:24:46.420Z,33.40
2023-03-20T17:27:13.681Z,33.40
2023-03-20T17:29:41.604Z,33.40
2023-03-20T17:32:17.358Z,33.40
2023-03-20T17:34:45.478Z,33.40
2023-03-20T17:37:14.818Z,33.40
2023-03-20T17:39:42.568Z,33.30
2023-03-20T17:42:18.153Z,33.40
2023-03-20T17:44:45.242Z,33.30
2023-03-20T17:47:17.064Z,33.40
2023-03-20T17:49:44.355Z,33.30
2023-03-20T17:52:15.316Z,34.00
2023-03-20T17:54:43.262Z,33.30
2023-03-20T17:57:31.203Z,33.30
2023-03-20T17:59:58.037Z,33.30
2023-03-20T18:02:25.149Z,33.30
2023-03-20T18:04:52.352Z,33.30
2023-03-20T18:07:20.034Z,33.30
2023-03-20T18:09:48.871Z,33.40
2023-03-20T18:12:18.337Z,33.40
2023-03-20T18:14:46.016Z,33.30
2023-03-20T18:17:14.252Z,33.30
2023-03-20T18:19:41.291Z,33.20
2023-03-20T18:22:08.452Z,33.30
2023-03-20T18:24:35.923Z,33.40
2023-03-20T18:27:03.216Z,33.30
2023-03-20T18:29:30.152Z,33.30
2023-03-20T18:31:56.901Z,33.40
2023-03-20T18:34:23.496Z,33.40
2023-03-20T18:36:50.229Z,33.50
2023-03-20T18:39:23.476Z,33.40
2023-03-20T18:41:50.897Z,33.50
2023-03-20T18:44:17.488Z,33.60
2023-03-20T18:46:44.241Z,33.60
2023-03-20T18:49:16.095Z,33.70
2023-03-20T18:51:42.829Z,33.70
2023-03-20T18:54:09.526Z,33.60
2023-03-20T18:56:37.739Z,33.70
2023-03-20T18:59:07.778Z,33.70
2023-03-20T19:01:35.733Z,33.70
2023-03-20T19:04:02.705Z,33.80
2023-03-20T19:06:32.527Z,33.70
2023-03-20T19:09:01.363Z,33.70
2023-03-20T19:11:27.981Z,33.80
2023-03-20T19:13:54.669Z,33.80
2023-03-20T19:16:24.419Z,33.80
2023-03-20T19:18:55.748Z,34.00
2023-03-20T19:21:26.086Z,33.80
2023-03-20T19:23:54.556Z,33.90
2023-03-20T19:26:22.095Z,33.90
2023-03-20T19:28:51.388Z,33.90
2023-03-20T19:31:18.442Z,33.90
2023-03-20T19:33:45.692Z,33.90
2023-03-20T19:36:29.380Z,33.90
2023-03-20T19:38:57.701Z,34.00
2023-03-20T19:41:25.367Z,34.00
2023-03-20T19:43:53.863Z,34.00
2023-03-20T19:46:38.665Z,34.00
2023-03-20T19:49:06.838Z,34.00
2023-03-20T19:51:33.667Z,33.90
2023-03-20T19:54:00.534Z,34.00
2023-03-20T19:56:27.914Z,34.00
2023-03-20T19:58:54.823Z,34.10
2023-03-20T20:01:24.554Z,34.10
2023-03-20T20:03:53.615Z,34.10
2023-03-20T20:06:22.655Z,34.10
2023-03-20T20:08:51.206Z,34.10
2023-03-20T20:11:21.371Z,34.10
2023-03-20T20:16:39.999Z,34.10
2023-03-20T20:19:07.265Z,34.10
2023-03-20T20:24:21.364Z,34.10
2023-03-20T20:26:54.960Z,34.10
2023-03-20T20:29:26.863Z,34.20
2023-03-20T20:31:53.785Z,34.20
2023-03-20T20:39:54.460Z,34.20
2023-03-20T20:42:21.444Z,34.30
2023-03-20T20:44:48.508Z,34.30
2023-03-20T20:47:16.286Z,34.30
2023-03-20T20:49:46.011Z,34.30
2023-03-20T20:52:13.087Z,34.30
2023-03-20T20:54:41.989Z,34.30
2023-03-20T20:57:10.727Z,34.40
2023-03-20T20:59:38.101Z,34.40
2023-03-20T21:02:10.809Z,34.40
2023-03-20T21:04:39.677Z,34.40
2023-03-20T21:07:10.408Z,34.40
2023-03-20T21:09:37.833Z,34.40
2023-03-20T21:12:05.405Z,34.50
2023-03-20T21:14:32.297Z,34.50
2023-03-20T21:17:02.191Z,34.50
2023-03-20T21:19:30.741Z,35.20
2023-03-20T21:21:57.385Z,33.90
2023-03-20T21:24:34.054Z,34.50
2023-03-20T21:27:07.878Z,34.50
2023-03-20T21:29:34.775Z,34.60
2023-03-20T21:32:01.519Z,34.50
2023-03-20T21:34:29.052Z,34.50
2023-03-20T21:36:57.833Z,34.60
2023-03-20T21:39:27.506Z,34.50
2023-03-20T21:41:54.172Z,34.40
2023-03-20T21:44:56.037Z,34.50
2023-03-20T21:56:23.603Z,34.40
2023-03-20T21:58:56.210Z,34.40
2023-03-20T22:01:45.937Z,34.40
2023-03-20T22:04:45.092Z,34.40
2023-03-20T22:15:33.831Z,34.50
2023-03-20T22:32:27.923Z,34.50
2023-03-20T22:35:08.990Z,34.50
2023-03-20T22:45:38.355Z,34.50
2023-03-20T22:48:10.850Z,34.50
2023-03-20T22:50:38.860Z,34.70
2023-03-20T22:53:05.732Z,34.60
2023-03-20T22:55:32.316Z,34.60
2023-03-20T22:58:06.831Z,34.60
2023-03-20T23:00:35.878Z,34.60
2023-03-20T23:03:17.560Z,34.60
2023-03-20T23:05:49.621Z,34.60
2023-03-20T23:08:16.823Z,34.60
2023-03-20T23:10:45.774Z,34.70
2023-03-20T23:13:13.277Z,34.60
2023-03-20T23:15:40.016Z,34.60
2023-03-20T23:18:06.822Z,34.60
2023-03-20T23:20:33.825Z,34.60
2023-03-20T23:23:00.609Z,34.60
2023-03-20T23:25:38.849Z,34.70
2023-03-20T23:28:07.518Z,34.60
2023-03-20T23:30:43.939Z,34.60
2023-03-20T23:33:13.099Z,34.70
2023-03-20T23:35:39.748Z,34.60
2023-03-20T23:38:06.377Z,34.60
2023-03-20T23:40:33.032Z,34.60
2023-03-20T23:42:59.686Z,34.70
2023-03-20T23:45:26.286Z,34.60
2023-03-20T23:47:53.027Z,34.60
2023-03-20T23:50:28.924Z,34.60
2023-03-20T23:53:09.539Z,34.60
2023-03-20T23:55:41.183Z,34.60
2023-03-20T23:58:08.163Z,34.60
